Terminal Aerodrome Forecast
Issued by NWS St Louis, MO

Home | Current Version | Previous Version | Graphics & Text | Print | Product List | Glossary On
Versions: 1 2 3 4 5 6 7 8 9 10 11 12 13 14 15 16 17 18 19 20 21 22 23 24 25
286
FTUS43 KLSX 241130
TAFSTL
TAF
KSTL 241130Z 2412/2518 18007KT P6SM SCT250 WS016/21040KT
     FM241400 18012G25KT P6SM SCT250
     FM250000 17012G20KT P6SM VCTS OVC050CB
     FM250200 16011G19KT 5SM -TSRA OVC030CB
     FM250400 16011G19KT 5SM -SHRA OVC020=

USA.gov is the U.S. government's official web portal to all federal, state and local government web resources and services.